Time;durP1;ratioP1;P1;durP2;ratioP2;P2;SDS_P1;SDS_P2;PMS_P1;PMS_P2;Temp;Humidity;BMP_temperature;BMP_pressure;BME280_temperature;BME280_humidity;BME280_pressure;Samples;Min_cycle;Max_cycle;Signal;HPM_P1;HPM_P2
2021/09/18 00:01:50;;;;;;;3.47;2.70;;;17.80;41.00;;;;;;10438612;28;20229;-76
2021/09/18 00:06:53;;;;;;;3.00;2.70;;;17.80;41.40;;;;;;10437836;28;20228;-76
2021/09/18 00:11:56;;;;;;;3.37;3.07;;;17.80;41.20;;;;;;10433069;28;20225;-75
2021/09/18 00:17:01;;;;;;;3.20;3.00;;;17.80;41.30;;;;;;10434954;28;20239;-75
2021/09/18 00:22:04;;;;;;;3.47;3.20;;;17.80;41.50;;;;;;10432007;28;20216;-76
2021/09/18 00:27:07;;;;;;;2.93;2.73;;;17.80;41.20;;;;;;10433249;28;20225;-75
2021/09/18 00:32:12;;;;;;;3.40;2.87;;;17.70;41.10;;;;;;10427477;28;20229;-76
2021/09/18 00:37:15;;;;;;;3.60;3.17;;;17.70;41.30;;;;;;10433435;28;20360;-76
2021/09/18 00:42:18;;;;;;;3.50;2.73;;;17.70;41.20;;;;;;10434555;28;20643;-76
2021/09/18 00:47:23;;;;;;;3.67;3.20;;;17.60;41.20;;;;;;10444117;28;20237;-76
2021/09/18 00:52:26;;;;;;;3.30;3.00;;;17.60;41.50;;;;;;10439411;28;20614;-77
2021/09/18 00:57:30;;;;;;;4.03;3.00;;;17.60;41.10;;;;;;10431538;28;20822;-76
2021/09/18 01:02:35;;;;;;;3.50;3.20;;;17.60;41.00;;;;;;10430358;28;20230;-76
2021/09/18 01:07:40;;;;;;;3.63;2.90;;;17.50;40.90;;;;;;10438385;28;20234;-76
2021/09/18 01:13:01;;;;;;;4.10;3.13;;;17.40;40.60;;;;;;10436900;28;20248;-76
2021/09/18 01:18:07;;;;;;;3.23;3.03;;;17.20;41.10;;;;;;10437855;28;20264;-76
2021/09/18 01:23:11;;;;;;;3.00;2.80;;;17.10;41.20;;;;;;10427896;28;20880;-76
2021/09/18 01:28:17;;;;;;;3.20;3.00;;;17.00;41.20;;;;;;10427696;28;20233;-76
2021/09/18 01:33:20;;;;;;;3.10;2.90;;;17.00;41.30;;;;;;10433910;28;20221;-76
2021/09/18 01:38:23;;;;;;;3.33;3.13;;;17.00;41.30;;;;;;10424976;28;20309;-76
2021/09/18 01:43:29;;;;;;;3.37;3.07;;;17.00;41.70;;;;;;10440139;28;20251;-76
2021/09/18 01:48:32;;;;;;;2.83;2.63;;;16.90;40.90;;;;;;10430077;28;20252;-76
2021/09/18 01:53:35;;;;;;;3.17;2.90;;;16.80;41.00;;;;;;10434938;28;20298;-76
2021/09/18 01:58:40;;;;;;;2.73;2.53;;;16.80;41.10;;;;;;10441701;28;20233;-76
2021/09/18 02:03:44;;;;;;;2.80;2.60;;;16.70;41.10;;;;;;10426231;28;20236;-76
2021/09/18 02:08:47;;;;;;;2.77;2.57;;;16.70;40.90;;;;;;10425387;28;20290;-75
2021/09/18 02:14:06;;;;;;;3.93;2.67;;;16.70;40.90;;;;;;10435288;28;20220;-78
2021/09/18 02:19:10;;;;;;;2.97;2.77;;;16.70;41.10;;;;;;10421813;28;20311;-76
2021/09/18 02:24:13;;;;;;;2.80;2.47;;;16.70;40.90;;;;;;10433876;28;20307;-76
2021/09/18 02:29:18;;;;;;;3.30;3.00;;;16.70;40.70;;;;;;10423499;28;20271;-76
2021/09/18 02:34:21;;;;;;;3.00;2.80;;;16.60;40.70;;;;;;10427499;28;20308;-76
2021/09/18 02:39:24;;;;;;;2.60;2.40;;;16.50;41.20;;;;;;10428374;28;20291;-76
2021/09/18 02:44:29;;;;;;;2.60;2.40;;;16.40;40.80;;;;;;10427131;28;20245;-77
2021/09/18 02:49:32;;;;;;;3.00;2.80;;;16.40;41.00;;;;;;10429857;28;20221;-76
2021/09/18 02:54:35;;;;;;;3.03;2.83;;;16.30;40.90;;;;;;10433145;28;20253;-76
2021/09/18 02:59:40;;;;;;;2.63;2.43;;;16.20;40.90;;;;;;10441164;28;20249;-75
2021/09/18 03:04:43;;;;;;;2.70;2.50;;;16.20;41.00;;;;;;10433822;28;20316;-76
2021/09/18 03:09:47;;;;;;;3.40;3.10;;;16.10;41.00;;;;;;10422044;28;20243;-76
2021/09/18 03:14:51;;;;;;;3.17;2.83;;;16.10;40.90;;;;;;10432364;28;20751;-76
2021/09/18 03:19:56;;;;;;;3.43;3.13;;;16.00;41.00;;;;;;10429047;28;20320;-76
2021/09/18 03:24:59;;;;;;;3.90;3.10;;;15.90;40.80;;;;;;10431362;28;20700;-76
2021/09/18 03:30:05;;;;;;;2.80;2.60;;;15.80;40.80;;;;;;10425908;28;20260;-76
2021/09/18 03:35:09;;;;;;;2.90;2.70;;;15.70;41.10;;;;;;10429154;28;20218;-76
2021/09/18 03:40:13;;;;;;;2.40;2.30;;;15.70;41.20;;;;;;10427689;28;20656;-76
2021/09/18 03:45:18;;;;;;;2.33;2.23;;;15.60;41.30;;;;;;10425884;28;20224;-76
2021/09/18 03:50:21;;;;;;;2.63;2.43;;;15.60;41.50;;;;;;10430978;28;20248;-76
2021/09/18 03:55:25;;;;;;;3.00;2.80;;;15.60;41.20;;;;;;10428565;28;20648;-77
2021/09/18 04:00:29;;;;;;;3.37;2.87;;;15.70;41.30;;;;;;10433910;28;20316;-77
2021/09/18 04:05:32;;;;;;;3.00;2.80;;;15.70;41.10;;;;;;10427517;28;20243;-76
2021/09/18 04:10:37;;;;;;;2.83;2.63;;;15.70;41.00;;;;;;10425492;28;20747;-76
2021/09/18 04:15:41;;;;;;;2.90;2.70;;;15.60;40.80;;;;;;10429325;28;20265;-77
2021/09/18 04:20:45;;;;;;;2.80;2.60;;;15.60;40.90;;;;;;10426238;28;20751;-76
2021/09/18 04:25:48;;;;;;;2.80;2.60;;;15.60;40.80;;;;;;10429062;28;20233;-76
2021/09/18 04:30:53;;;;;;;2.87;2.67;;;15.60;40.80;;;;;;10435575;28;20283;-76
2021/09/18 04:35:56;;;;;;;2.87;2.67;;;15.50;40.70;;;;;;10437983;28;20234;-76
2021/09/18 04:41:00;;;;;;;4.77;2.90;;;15.50;40.70;;;;;;10427438;28;20348;-77
2021/09/18 04:46:04;;;;;;;2.77;2.57;;;15.40;40.60;;;;;;10433710;28;20257;-76
2021/09/18 04:51:08;;;;;;;3.37;3.07;;;15.30;40.80;;;;;;10441199;28;20252;-75
2021/09/18 04:56:11;;;;;;;3.10;2.90;;;15.20;40.90;;;;;;10445921;28;20231;-76
2021/09/18 05:01:16;;;;;;;2.90;2.70;;;15.20;40.80;;;;;;10436037;28;20262;-76
2021/09/18 05:06:20;;;;;;;2.97;2.70;;;15.10;40.90;;;;;;10435342;28;20965;-76
2021/09/18 05:11:23;;;;;;;3.47;3.27;;;15.10;40.90;;;;;;10437729;28;20312;-76
2021/09/18 05:16:28;;;;;;;2.90;2.70;;;15.00;41.00;;;;;;10428750;28;21041;-77
2021/09/18 05:21:31;;;;;;;3.30;3.10;;;15.00;41.40;;;;;;10436710;28;20256;-76
2021/09/18 05:26:34;;;;;;;3.47;3.27;;;15.00;41.20;;;;;;10429447;28;20237;-76
2021/09/18 05:31:39;;;;;;;3.40;3.10;;;15.00;41.30;;;;;;10438461;28;20328;-76
2021/09/18 05:36:45;;;;;;;3.27;2.97;;;14.90;41.30;;;;;;10433611;28;20237;-76
2021/09/18 05:41:49;;;;;;;3.20;3.00;;;14.90;41.30;;;;;;10432036;28;20290;-77
2021/09/18 05:46:54;;;;;;;5.40;3.27;;;14.80;41.50;;;;;;10437868;28;20263;-76
2021/09/18 05:51:58;;;;;;;3.03;2.83;;;14.80;41.90;;;;;;10439267;28;20235;-76
2021/09/18 05:57:01;;;;;;;4.97;3.60;;;14.70;41.70;;;;;;10431338;28;20316;-76
2021/09/18 06:02:06;;;;;;;3.17;2.93;;;14.70;41.90;;;;;;10439694;28;20251;-76
2021/09/18 06:07:10;;;;;;;4.47;3.60;;;14.70;42.30;;;;;;10440062;28;20245;-76
2021/09/18 06:12:14;;;;;;;3.87;3.57;;;14.70;42.20;;;;;;10434454;28;20685;-76
2021/09/18 06:17:20;;;;;;;4.60;4.20;;;14.70;42.50;;;;;;10433161;28;20845;-76
2021/09/18 06:22:24;;;;;;;4.47;4.07;;;14.70;43.00;;;;;;10433692;28;20244;-76
2021/09/18 06:27:27;;;;;;;4.43;4.10;;;14.60;42.70;;;;;;10431316;28;20287;-76
2021/09/18 06:32:35;;;;;;;4.77;4.40;;;14.60;43.20;;;;;;10431246;28;20270;-75
2021/09/18 06:37:43;;;;;;;4.97;4.67;;;14.70;44.10;;;;;;10428417;28;20307;-75
2021/09/18 06:42:47;;;;;;;5.70;4.90;;;14.70;44.10;;;;;;10436059;28;20220;-75
2021/09/18 06:47:52;;;;;;;5.97;5.47;;;14.80;44.20;;;;;;10429824;28;20631;-75
2021/09/18 06:52:55;;;;;;;6.57;5.97;;;14.80;44.90;;;;;;10431219;28;20315;-75
2021/09/18 06:58:00;;;;;;;6.53;6.00;;;14.90;44.30;;;;;;10438746;28;20745;-77
2021/09/18 07:03:04;;;;;;;7.00;6.40;;;15.00;44.30;;;;;;10439597;28;20260;-74
2021/09/18 07:08:08;;;;;;;8.00;7.30;;;15.10;45.10;;;;;;10431074;28;20252;-74
2021/09/18 07:13:11;;;;;;;6.80;6.30;;;15.20;44.60;;;;;;10422648;28;20225;-74
2021/09/18 07:18:16;;;;;;;8.20;7.50;;;15.40;44.70;;;;;;10425486;28;20311;-75
2021/09/18 07:23:19;;;;;;;8.03;7.33;;;15.60;45.70;;;;;;10432441;28;20404;-75
2021/09/18 07:28:23;;;;;;;8.20;7.50;;;15.70;45.00;;;;;;10420515;28;20283;-74
2021/09/18 07:33:27;;;;;;;9.00;8.20;;;15.90;45.10;;;;;;10422086;28;20232;-74
2021/09/18 07:38:31;;;;;;;10.17;9.17;;;16.10;46.00;;;;;;10425046;28;20241;-74
2021/09/18 07:43:34;;;;;;;9.77;8.97;;;16.30;45.60;;;;;;10428500;28;20796;-75
2021/09/18 07:48:39;;;;;;;9.93;9.13;;;16.50;45.80;;;;;;10431326;28;20224;-74
2021/09/18 07:53:42;;;;;;;10.57;9.67;;;16.70;46.50;;;;;;10425851;28;20728;-75
2021/09/18 07:58:46;;;;;;;12.63;11.43;;;16.90;46.00;;;;;;10432164;28;20233;-74
2021/09/18 08:03:50;;;;;;;10.67;9.80;;;17.00;46.10;;;;;;10440255;28;20294;-75
2021/09/18 08:08:54;;;;;;;12.10;11.00;;;17.20;46.30;;;;;;10435115;28;20226;-75
2021/09/18 08:13:58;;;;;;;11.37;10.37;;;17.30;46.30;;;;;;10433732;28;20283;-75
2021/09/18 08:19:03;;;;;;;10.87;9.87;;;17.50;46.50;;;;;;10431077;28;20225;-75
2021/09/18 08:24:06;;;;;;;11.13;10.00;;;17.60;46.60;;;;;;10440826;28;20225;-77
2021/09/18 08:29:09;;;;;;;10.73;9.73;;;17.70;46.70;;;;;;10446254;28;20240;-77
2021/09/18 08:34:14;;;;;;;11.03;10.10;;;17.90;46.60;;;;;;10437446;28;20252;-74
2021/09/18 08:39:17;;;;;;;11.20;10.10;;;18.10;46.50;;;;;;10433881;28;20728;-75
2021/09/18 08:44:21;;;;;;;11.73;10.53;;;18.30;46.00;;;;;;10429326;28;20229;-75
2021/09/18 08:49:27;;;;;;;9.70;8.80;;;18.50;46.40;;;;;;10431300;28;20233;-75
2021/09/18 08:54:31;;;;;;;11.07;10.07;;;18.80;46.30;;;;;;10434591;28;20225;-75
2021/09/18 08:59:37;;;;;;;10.40;9.33;;;19.00;46.60;;;;;;10425809;28;20241;-75
2021/09/18 09:04:43;;;;;;;8.80;8.00;;;19.30;45.90;;;;;;10422135;28;20309;-74
2021/09/18 09:09:53;;;;;;;7.47;6.80;;;19.60;45.50;;;;;;10426014;28;20233;-74
2021/09/18 09:14:57;;;;;;;6.13;5.50;;;19.90;44.50;;;;;;10429594;28;20251;-74
2021/09/18 09:20:02;;;;;;;5.50;5.10;;;20.20;43.70;;;;;;10430640;28;20984;-76
2021/09/18 09:25:06;;;;;;;4.73;4.43;;;20.50;44.00;;;;;;10425233;28;20306;-75
2021/09/18 09:30:10;;;;;;;5.13;4.73;;;20.70;43.30;;;;;;10430015;28;20233;-75
2021/09/18 09:35:15;;;;;;;3.73;3.43;;;21.00;43.10;;;;;;10426175;28;20222;-76
2021/09/18 09:40:31;;;;;;;2.93;2.70;;;21.20;41.90;;;;;;10425783;28;20227;-75
2021/09/18 09:45:35;;;;;;;2.10;2.00;;;21.40;40.80;;;;;;10436261;28;20239;-76
2021/09/18 09:50:42;;;;;;;1.70;1.60;;;21.60;41.00;;;;;;10427665;28;20221;-76
2021/09/18 09:55:45;;;;;;;3.10;2.03;;;21.80;38.10;;;;;;10437306;28;20229;-76
2021/09/18 10:00:51;;;;;;;2.10;2.00;;;21.90;39.50;;;;;;10435291;28;20708;-77
2021/09/18 10:05:56;;;;;;;2.50;2.40;;;22.00;38.60;;;;;;10431575;28;20755;-76
2021/09/18 10:11:24;;;;;;;3.80;3.50;;;22.20;38.40;;;;;;10422392;28;20236;-76
2021/09/18 10:16:27;;;;;;;2.87;2.67;;;22.30;37.90;;;;;;10418511;28;20235;-76
2021/09/18 10:27:18;;;;;;;3.33;3.03;;;22.50;38.00;;;;;;10421437;28;20237;-77
2021/09/18 10:32:23;;;;;;;3.53;3.33;;;22.60;37.20;;;;;;10412030;28;20224;-76
2021/09/18 10:37:36;;;;;;;3.00;2.80;;;22.80;37.50;;;;;;10415797;28;20612;-77
2021/09/18 10:42:43;;;;;;;2.50;2.30;;;22.90;37.10;;;;;;10422905;28;20248;-78
2021/09/18 10:47:48;;;;;;;2.20;2.10;;;23.00;36.40;;;;;;10441749;28;20712;-77
2021/09/18 10:53:00;;;;;;;2.37;2.27;;;23.10;36.70;;;;;;10440471;28;20232;-77
2021/09/18 10:58:09;;;;;;;2.70;2.50;;;23.20;34.50;;;;;;10446061;28;20228;-77
2021/09/18 11:03:12;;;;;;;3.10;2.90;;;23.20;33.40;;;;;;10446263;28;20224;-78
2021/09/18 11:08:34;;;;;;;2.87;2.67;;;23.20;35.70;;;;;;10441178;28;20233;-77
2021/09/18 11:13:39;;;;;;;2.83;2.63;;;23.20;34.10;;;;;;10434140;28;20228;-76
2021/09/18 11:18:44;;;;;;;2.47;2.30;;;23.30;35.70;;;;;;10433333;28;20601;-75
2021/09/18 11:23:52;;;;;;;3.50;3.30;;;23.30;35.30;;;;;;10431982;28;20235;-75
2021/09/18 11:28:55;;;;;;;3.03;2.83;;;23.40;34.10;;;;;;10417357;28;20757;-77
2021/09/18 11:33:59;;;;;;;2.80;2.60;;;23.50;34.80;;;;;;10427784;28;20217;-75
2021/09/18 11:39:04;;;;;;;3.40;3.03;;;23.50;34.80;;;;;;10440076;28;20224;-75
2021/09/18 11:44:11;;;;;;;3.00;2.80;;;23.60;34.00;;;;;;10443738;28;21008;-77
2021/09/18 11:49:14;;;;;;;2.43;2.33;;;23.60;33.10;;;;;;10432115;28;20213;-78
2021/09/18 11:54:23;;;;;;;3.10;2.90;;;23.70;34.30;;;;;;10430599;28;20580;-75
2021/09/18 11:59:30;;;;;;;3.07;2.77;;;23.70;32.20;;;;;;10448073;28;20680;-75
2021/09/18 12:04:40;;;;;;;2.83;2.63;;;23.80;34.00;;;;;;10448397;28;20229;-76
2021/09/18 12:09:45;;;;;;;2.70;2.50;;;23.80;31.50;;;;;;10432264;28;20357;-76
2021/09/18 12:14:55;;;;;;;2.70;2.50;;;23.90;32.40;;;;;;10436237;28;20224;-74
2021/09/18 12:19:58;;;;;;;2.73;2.53;;;23.90;32.90;;;;;;10429075;28;20221;-75
2021/09/18 12:25:06;;;;;;;2.90;2.70;;;24.00;33.80;;;;;;10439683;28;20302;-75
2021/09/18 12:30:11;;;;;;;2.97;2.70;;;24.10;32.30;;;;;;10438647;28;20612;-76
2021/09/18 12:35:14;;;;;;;2.90;2.70;;;24.20;32.50;;;;;;10435909;28;20739;-77
2021/09/18 12:40:21;;;;;;;2.53;2.43;;;24.20;33.00;;;;;;10432968;28;20701;-76
2021/09/18 12:45:26;;;;;;;2.80;2.60;;;24.20;31.60;;;;;;10436433;28;20232;-77
2021/09/18 12:50:29;;;;;;;2.90;2.70;;;24.20;32.30;;;;;;10431396;28;20236;-76
2021/09/18 12:55:35;;;;;;;2.80;2.60;;;24.20;32.30;;;;;;10434003;28;20722;-77
2021/09/18 13:00:57;;;;;;;2.83;2.63;;;24.20;31.30;;;;;;10433958;28;20345;-77
2021/09/18 13:06:02;;;;;;;2.60;2.50;;;24.20;31.20;;;;;;10443343;28;20393;-77
2021/09/18 13:11:13;;;;;;;3.00;2.80;;;24.20;32.30;;;;;;10442808;28;20235;-77
2021/09/18 13:16:18;;;;;;;3.27;3.03;;;24.30;28.60;;;;;;10435894;28;20320;-77
2021/09/18 13:21:21;;;;;;;3.40;3.20;;;24.20;30.70;;;;;;10430195;28;20623;-77
2021/09/18 13:26:26;;;;;;;3.40;2.97;;;24.20;31.80;;;;;;10422511;28;20232;-77
2021/09/18 13:31:29;;;;;;;3.10;2.90;;;24.20;30.50;;;;;;10442532;28;20221;-77
2021/09/18 13:36:32;;;;;;;3.50;3.20;;;24.20;31.00;;;;;;10436576;28;20594;-77
2021/09/18 13:41:37;;;;;;;3.10;2.90;;;24.30;31.30;;;;;;10434416;28;20232;-77
2021/09/18 13:46:41;;;;;;;2.93;2.73;;;24.30;30.70;;;;;;10431450;28;20605;-77
2021/09/18 13:51:44;;;;;;;3.40;3.10;;;24.30;31.10;;;;;;10434844;28;20237;-78
2021/09/18 13:56:49;;;;;;;3.30;3.10;;;24.40;31.20;;;;;;10427502;28;20239;-77
2021/09/18 14:01:52;;;;;;;3.07;2.87;;;24.30;30.70;;;;;;10430204;28;20221;-77
2021/09/18 14:06:55;;;;;;;3.10;2.90;;;24.30;31.40;;;;;;10429513;28;20241;-77
2021/09/18 14:12:05;;;;;;;3.40;3.20;;;24.20;31.50;;;;;;10437008;28;20243;-77
2021/09/18 14:17:08;;;;;;;3.40;3.10;;;24.10;30.70;;;;;;10425847;28;20233;-77
2021/09/18 14:22:12;;;;;;;3.63;3.33;;;24.10;31.50;;;;;;10427214;28;20703;-77
2021/09/18 14:27:16;;;;;;;3.83;3.43;;;24.10;31.40;;;;;;10426326;28;20224;-77
2021/09/18 14:32:20;;;;;;;3.83;3.57;;;24.10;31.40;;;;;;10431784;28;20576;-77
2021/09/18 14:37:23;;;;;;;3.50;3.30;;;24.00;31.70;;;;;;10429659;28;20237;-77
2021/09/18 14:42:27;;;;;;;3.70;3.50;;;24.00;31.60;;;;;;10422270;28;20587;-77
2021/09/18 14:47:31;;;;;;;3.80;3.60;;;24.00;31.50;;;;;;10421201;28;20633;-77
2021/09/18 14:52:34;;;;;;;3.53;3.27;;;24.00;30.80;;;;;;10444006;28;20769;-76
2021/09/18 14:57:39;;;;;;;3.80;3.50;;;24.00;30.80;;;;;;10431473;28;22345;-76
2021/09/18 15:02:44;;;;;;;3.90;3.60;;;24.10;30.20;;;;;;10428930;28;20229;-76
2021/09/18 15:07:47;;;;;;;4.10;3.80;;;24.10;30.60;;;;;;10429788;28;20612;-77
2021/09/18 15:12:52;;;;;;;4.23;3.93;;;24.20;30.50;;;;;;10429505;28;20229;-76
2021/09/18 15:17:55;;;;;;;4.33;4.03;;;24.20;30.00;;;;;;10432074;28;20225;-76
2021/09/18 15:23:02;;;;;;;4.00;3.70;;;24.20;30.30;;;;;;10431048;28;20229;-76
2021/09/18 15:28:07;;;;;;;4.47;4.10;;;24.10;30.40;;;;;;10424609;28;20428;-76
2021/09/18 15:33:12;;;;;;;4.63;4.33;;;24.10;30.00;;;;;;10425941;28;20233;-76
2021/09/18 15:38:16;;;;;;;9.37;8.57;;;24.10;30.30;;;;;;10428027;28;20248;-77
2021/09/18 15:43:22;;;;;;;5.83;5.23;;;24.00;30.20;;;;;;10432526;28;20229;-76
2021/09/18 15:48:26;;;;;;;5.27;4.87;;;23.90;30.10;;;;;;10429817;28;20256;-76
2021/09/18 15:53:29;;;;;;;4.40;4.10;;;23.90;30.70;;;;;;10422618;28;20229;-76
2021/09/18 15:58:34;;;;;;;4.53;3.87;;;23.90;31.10;;;;;;10429343;28;20243;-76
2021/09/18 16:03:39;;;;;;;4.03;3.63;;;23.80;30.80;;;;;;10424865;28;20228;-76
2021/09/18 16:08:42;;;;;;;4.87;4.20;;;23.80;30.90;;;;;;10439423;28;20221;-76
2021/09/18 16:13:47;;;;;;;5.07;4.67;;;23.80;31.00;;;;;;10427517;28;20245;-76
2021/09/18 16:18:50;;;;;;;4.97;4.63;;;23.80;30.90;;;;;;10426989;28;20240;-76
2021/09/18 16:23:53;;;;;;;4.83;4.50;;;23.80;31.30;;;;;;10429231;28;20243;-76
2021/09/18 16:28:58;;;;;;;4.77;4.47;;;23.80;31.60;;;;;;10430035;28;20235;-76
2021/09/18 16:34:01;;;;;;;5.77;5.37;;;23.80;31.20;;;;;;10432118;28;20232;-75
2021/09/18 16:39:05;;;;;;;5.70;5.30;;;23.80;31.20;;;;;;10427066;28;20218;-76
2021/09/18 16:44:09;;;;;;;5.83;5.43;;;23.70;31.30;;;;;;10430723;28;20228;-76
2021/09/18 16:49:12;;;;;;;7.07;6.47;;;23.70;31.50;;;;;;10423993;28;20226;-75
2021/09/18 16:54:15;;;;;;;7.00;6.40;;;23.70;31.60;;;;;;10426724;28;20229;-75
2021/09/18 16:59:20;;;;;;;6.33;5.83;;;23.60;31.80;;;;;;10427874;28;20236;-75
2021/09/18 17:04:23;;;;;;;5.80;5.30;;;23.50;31.70;;;;;;10423964;28;20220;-75
2021/09/18 17:09:27;;;;;;;6.27;5.70;;;23.50;31.80;;;;;;10428154;28;20235;-76
2021/09/18 17:14:32;;;;;;;5.27;4.87;;;23.40;32.10;;;;;;10437078;28;20324;-76
2021/09/18 17:19:35;;;;;;;5.20;4.70;;;23.30;32.10;;;;;;10430906;28;20230;-75
2021/09/18 17:24:39;;;;;;;5.33;4.83;;;23.30;32.30;;;;;;10438903;28;20225;-76
2021/09/18 17:29:43;;;;;;;4.63;4.33;;;23.20;32.20;;;;;;10439920;28;20239;-76
2021/09/18 17:34:50;;;;;;;5.33;4.93;;;23.10;32.30;;;;;;10428728;28;20229;-76
2021/09/18 17:39:54;;;;;;;6.00;5.60;;;23.00;32.20;;;;;;10430945;28;20229;-76
2021/09/18 17:44:59;;;;;;;4.60;4.30;;;22.90;32.30;;;;;;10426357;28;20231;-76
2021/09/18 17:50:02;;;;;;;5.20;4.80;;;22.80;32.50;;;;;;10429068;28;20221;-76
2021/09/18 17:55:06;;;;;;;5.00;4.60;;;22.70;32.50;;;;;;10436788;28;20232;-76
2021/09/18 18:00:16;;;;;;;5.27;4.87;;;22.60;32.70;;;;;;10429204;28;20224;-77
2021/09/18 18:05:20;;;;;;;5.47;5.07;;;22.50;32.90;;;;;;10436942;28;20702;-76
2021/09/18 18:10:26;;;;;;;5.83;5.17;;;22.40;32.70;;;;;;10433016;28;20240;-77
2021/09/18 18:15:31;;;;;;;5.90;5.50;;;22.30;32.90;;;;;;10431642;28;20336;-77
2021/09/18 18:20:34;;;;;;;5.47;5.07;;;22.10;33.00;;;;;;10425738;28;20311;-75
2021/09/18 18:25:38;;;;;;;6.53;5.80;;;22.00;33.00;;;;;;10433271;28;20234;-75
2021/09/18 18:30:43;;;;;;;5.83;5.33;;;21.90;33.10;;;;;;10437885;28;20221;-75
2021/09/18 18:35:46;;;;;;;4.57;4.27;;;21.70;33.30;;;;;;10438979;28;20228;-75
2021/09/18 18:40:49;;;;;;;5.47;5.07;;;21.60;33.30;;;;;;10435975;28;20723;-75
2021/09/18 18:45:54;;;;;;;6.30;5.80;;;21.50;33.40;;;;;;10426559;28;20259;-75
2021/09/18 18:50:57;;;;;;;5.40;5.00;;;21.40;33.60;;;;;;10436724;28;20232;-74
2021/09/18 18:56:01;;;;;;;5.83;5.43;;;21.30;33.60;;;;;;10432772;28;20646;-76
2021/09/18 19:01:05;;;;;;;4.93;4.53;;;21.30;33.50;;;;;;10428261;28;20307;-75
2021/09/18 19:06:09;;;;;;;5.07;4.77;;;21.10;33.70;;;;;;10436038;28;20627;-75
2021/09/18 19:11:12;;;;;;;4.60;4.20;;;21.10;33.80;;;;;;10426149;28;20218;-74
2021/09/18 19:16:17;;;;;;;5.27;4.97;;;21.00;33.70;;;;;;10428392;28;20245;-76
2021/09/18 19:21:21;;;;;;;5.53;5.13;;;20.90;33.80;;;;;;10437795;28;20252;-75
2021/09/18 19:26:24;;;;;;;4.97;4.67;;;20.80;33.70;;;;;;10424278;28;20225;-75
2021/09/18 19:31:28;;;;;;;6.80;6.30;;;20.70;34.00;;;;;;10432571;28;20224;-75
2021/09/18 19:36:32;;;;;;;6.00;5.50;;;20.60;34.10;;;;;;10435510;28;20577;-76
2021/09/18 19:41:35;;;;;;;6.30;5.80;;;20.50;33.90;;;;;;10434389;28;20213;-77
2021/09/18 19:46:40;;;;;;;5.70;5.30;;;20.40;34.10;;;;;;10433733;28;20235;-76
2021/09/18 19:51:45;;;;;;;6.23;5.63;;;20.30;34.20;;;;;;10434938;28;20245;-76
2021/09/18 19:56:49;;;;;;;6.63;5.57;;;20.20;34.20;;;;;;10435807;28;20225;-76
2021/09/18 20:01:54;;;;;;;6.63;6.10;;;20.00;34.30;;;;;;10439512;28;20221;-76
2021/09/18 20:06:57;;;;;;;6.03;5.53;;;20.00;34.70;;;;;;10440313;28;20225;-76
2021/09/18 20:12:01;;;;;;;6.27;5.67;;;20.00;34.50;;;;;;10438412;28;20257;-76
2021/09/18 20:17:06;;;;;;;6.93;6.43;;;19.90;34.50;;;;;;10441328;28;20231;-76
2021/09/18 20:22:09;;;;;;;6.37;5.87;;;19.80;34.60;;;;;;10442162;28;20226;-76
2021/09/18 20:27:12;;;;;;;6.83;6.33;;;19.70;34.40;;;;;;10436352;28;20312;-78
2021/09/18 20:32:17;;;;;;;6.70;5.93;;;19.60;34.60;;;;;;10439688;28;20225;-76
2021/09/18 20:37:20;;;;;;;6.47;5.87;;;19.60;34.80;;;;;;10437943;28;20597;-76
2021/09/18 20:42:24;;;;;;;8.90;7.43;;;19.50;34.60;;;;;;10442252;28;20244;-76
2021/09/18 20:47:29;;;;;;;7.87;7.13;;;19.50;34.70;;;;;;10442842;28;20286;-76
2021/09/18 20:52:32;;;;;;;6.80;6.30;;;19.30;34.70;;;;;;10438740;28;20329;-76
2021/09/18 20:57:35;;;;;;;7.30;6.80;;;19.30;34.50;;;;;;10438421;28;20233;-76
2021/09/18 21:08:02;;;;;;;6.30;5.80;;;19.10;35.00;;;;;;10441707;28;20232;-76
2021/09/18 21:13:06;;;;;;;7.27;6.67;;;19.00;34.90;;;;;;10446899;28;20292;-76
2021/09/18 21:18:10;;;;;;;7.00;6.40;;;18.90;35.20;;;;;;10447631;28;20705;-76
2021/09/18 21:23:14;;;;;;;5.50;5.00;;;18.80;35.50;;;;;;10441979;28;20229;-76
2021/09/18 21:28:17;;;;;;;7.47;6.97;;;18.80;35.20;;;;;;10435673;28;20577;-76
2021/09/18 21:33:22;;;;;;;9.60;8.70;;;18.70;35.00;;;;;;10443170;28;20779;-76
2021/09/18 21:38:25;;;;;;;9.67;8.87;;;18.60;35.30;;;;;;10445777;28;20324;-76
2021/09/18 21:43:29;;;;;;;9.00;8.30;;;18.40;35.10;;;;;;10435992;28;20231;-76
2021/09/18 21:48:33;;;;;;;7.33;6.60;;;18.20;34.90;;;;;;10428983;28;20232;-76
2021/09/18 21:53:37;;;;;;;8.10;7.40;;;18.10;35.60;;;;;;10437651;28;20236;-76
2021/09/18 21:58:40;;;;;;;8.20;7.50;;;18.00;34.70;;;;;;10430937;28;20231;-76
2021/09/18 22:03:45;;;;;;;7.20;6.60;;;18.00;35.10;;;;;;10437858;28;20229;-76
2021/09/18 22:08:48;;;;;;;6.43;5.93;;;18.00;35.40;;;;;;10436850;28;20233;-76
2021/09/18 22:13:53;;;;;;;7.53;6.93;;;18.00;35.30;;;;;;10429606;28;20938;-76
2021/09/18 22:18:58;;;;;;;7.00;6.50;;;17.90;35.40;;;;;;10441881;28;20229;-76
2021/09/18 22:24:02;;;;;;;7.07;6.47;;;17.90;35.50;;;;;;10435701;28;20267;-76
2021/09/18 22:29:05;;;;;;;8.60;7.90;;;17.90;35.40;;;;;;10436776;28;20689;-76
2021/09/18 22:34:10;;;;;;;7.03;6.53;;;17.90;35.40;;;;;;10436035;28;20233;-77
2021/09/18 22:39:13;;;;;;;6.27;5.67;;;17.80;35.50;;;;;;10424917;28;20239;-76
2021/09/18 22:44:17;;;;;;;5.73;5.33;;;17.70;35.20;;;;;;10428995;28;20222;-76
2021/09/18 22:49:21;;;;;;;6.33;5.93;;;17.70;35.20;;;;;;10420199;28;20236;-76
2021/09/18 22:54:25;;;;;;;6.30;5.80;;;17.60;35.40;;;;;;10432430;28;20226;-76
2021/09/18 22:59:28;;;;;;;5.90;5.50;;;17.60;35.30;;;;;;10429307;28;20235;-76
2021/09/18 23:04:33;;;;;;;6.07;5.67;;;17.50;35.20;;;;;;10431440;28;20705;-76
2021/09/18 23:09:37;;;;;;;6.37;5.90;;;17.40;35.50;;;;;;10426167;28;20229;-76
2021/09/18 23:14:41;;;;;;;5.33;4.97;;;17.40;35.30;;;;;;10428035;28;20221;-76
2021/09/18 23:19:46;;;;;;;5.57;5.17;;;17.30;35.10;;;;;;10428836;28;20231;-76
2021/09/18 23:24:50;;;;;;;6.53;6.03;;;17.30;35.50;;;;;;10424180;28;20229;-76
2021/09/18 23:29:54;;;;;;;7.10;6.50;;;17.20;35.40;;;;;;10429401;28;20230;-76
2021/09/18 23:34:59;;;;;;;6.70;6.20;;;17.10;35.40;;;;;;10444528;28;20224;-76
2021/09/18 23:40:02;;;;;;;6.17;5.67;;;17.10;35.40;;;;;;10437343;28;20221;-76
2021/09/18 23:45:08;;;;;;;6.23;5.83;;;17.00;35.40;;;;;;10439279;28;20239;-76
2021/09/18 23:50:13;;;;;;;7.60;7.00;;;17.00;35.60;;;;;;10433780;28;20224;-76
2021/09/18 23:55:16;;;;;;;6.97;6.47;;;16.90;35.60;;;;;;10435704;28;20225;-77
